BKPR/PRN METAR and TAF weather

Enter ICAO airport designator
Station Type Date Time Source
BKPR METAR 2018/10/16 21:00 UTC NOAA

BKPR 162100Z VRB01KT CAVOK 09/04 Q1023 NOSIG


Station Type Date Time Source
BKPR Decoded METAR 2018/10/16 21:00 UTC NOAA

Station name not available
Oct 16, 2018 - 05:00 PM EDT / 2018.10.16 2100 UTC
Wind: Variable at 1 MPH (1 KT):0
Visibility: greater than 7 mile(s):0
Temperature: 48 F (9 C)
Dew Point: 39 F (4 C)
Relative Humidity: 70%
Pressure (altimeter): 30.21 in. Hg (1023 hPa)
ob: BKPR 162100Z VRB01KT CAVOK 09/04 Q1023 NOSIG
cycle: 21

Station Type Date Time Source
BKPR TAF 2018/10/16 12:30 UTC NOAA

TAF BKPR 161130Z 1612/1712 VRB03KT CAVOK


Example: see airport list